Time;durP1;ratioP1;P1;durP2;ratioP2;P2;SDS_P1;SDS_P2;PMS_P1;PMS_P2;Temp;Humidity;BMP_temperature;BMP_pressure;BME280_temperature;BME280_humidity;BME280_pressure;Samples;Min_cycle;Max_cycle;Signal;HPM_P1;HPM_P2
2023/04/10 00:02:08;;;;;;;15.10;6.83;;;7.00;1.00;;;;;;5071478;28;20771;-54
2023/04/10 00:04:33;;;;;;;17.73;7.33;;;6.70;1.00;;;;;;5070677;28;20482;-54
2023/04/10 00:06:59;;;;;;;16.90;7.72;;;6.60;1.00;;;;;;5070372;28;20890;-54
2023/04/10 00:09:25;;;;;;;18.00;8.13;;;7.70;1.00;;;;;;5071502;28;20408;-54
2023/04/10 00:11:50;;;;;;;17.95;8.05;;;6.50;1.00;;;;;;5070296;28;20854;-54
2023/04/10 00:14:21;;;;;;;14.80;6.80;;;6.40;1.00;;;;;;5071096;28;20368;-54
2023/04/10 00:16:48;;;;;;;16.13;7.03;;;6.30;1.00;;;;;;5070156;28;20392;-54
2023/04/10 00:19:14;;;;;;;15.43;6.72;;;7.40;1.00;;;;;;5070861;28;20378;-54
2023/04/10 00:21:40;;;;;;;15.13;6.80;;;8.30;1.00;;;;;;5069859;28;20832;-54
2023/04/10 00:24:05;;;;;;;18.93;6.90;;;6.20;1.00;;;;;;5070483;28;20384;-54
2023/04/10 00:26:31;;;;;;;17.98;7.88;;;6.20;1.00;;;;;;5070324;28;20929;-54
2023/04/10 00:28:57;;;;;;;17.15;7.68;;;6.50;1.00;;;;;;5070897;28;20993;-54
2023/04/10 00:31:22;;;;;;;17.30;7.40;;;6.40;1.00;;;;;;5071013;28;20502;-54
2023/04/10 00:33:48;;;;;;;19.65;7.90;;;6.00;1.00;;;;;;5069994;28;20709;-53
2023/04/10 00:36:14;;;;;;;16.33;6.93;;;8.00;1.00;;;;;;5071118;28;20479;-54
2023/04/10 00:38:40;;;;;;;15.10;7.22;;;6.00;1.00;;;;;;5069738;28;20894;-54
2023/04/10 00:41:06;;;;;;;17.93;8.13;;;7.60;1.00;;;;;;5070529;28;20455;-54
2023/04/10 00:43:31;;;;;;;16.75;7.47;;;7.30;1.40;;;;;;5069489;28;20394;-54
2023/04/10 00:45:57;;;;;;;17.90;7.53;;;7.30;1.00;;;;;;5070315;28;20400;-54
2023/04/10 00:48:24;;;;;;;14.40;7.07;;;5.90;55.50;;;;;;5070494;28;20440;-53
2023/04/10 00:50:49;;;;;;;14.43;6.82;;;7.00;99.90;;;;;;5069529;28;20635;-54
2023/04/10 00:53:16;;;;;;;17.10;7.30;;;6.30;99.90;;;;;;5070201;28;20380;-54
2023/04/10 00:55:42;;;;;;;16.20;7.18;;;6.90;99.90;;;;;;5069576;28;20943;-54
2023/04/10 00:58:13;;;;;;;17.17;7.93;;;5.80;99.90;;;;;;5070215;28;20407;-54
2023/04/10 01:00:39;;;;;;;15.93;7.40;;;5.90;99.90;;;;;;5069708;28;20384;-54
2023/04/10 01:03:04;;;;;;;15.75;7.18;;;5.90;99.90;;;;;;5069877;28;20719;-54
2023/04/10 01:05:38;;;;;;;15.63;6.88;;;6.00;99.90;;;;;;5069886;28;20387;-53
2023/04/10 01:08:26;;;;;;;15.75;7.07;;;6.10;94.60;;;;;;5070233;28;20453;-54
2023/04/10 01:11:08;;;;;;;18.02;8.10;;;6.10;47.10;;;;;;5069175;28;20452;-54
2023/04/10 01:14:04;;;;;;;16.85;7.00;;;6.10;32.90;;;;;;5051699;28;20494;-54
2023/04/10 01:16:50;;;;;;;17.38;7.00;;;7.40;32.60;;;;;;5069611;28;20372;-53
2023/04/10 01:19:42;;;;;;;16.08;7.60;;;6.80;14.70;;;;;;5069865;28;20384;-53
2023/04/10 01:22:12;;;;;;;16.00;7.20;;;6.10;1.00;;;;;;5070688;28;20409;-53
2023/04/10 01:25:08;;;;;;;18.33;7.80;;;6.10;3.70;;;;;;5068964;28;20382;-53
2023/04/10 01:27:45;;;;;;;15.57;7.13;;;6.20;1.00;;;;;;5068820;28;20384;-54
2023/04/10 01:30:16;;;;;;;17.47;7.13;;;7.80;1.00;;;;;;5069382;28;20419;-53
2023/04/10 01:32:43;;;;;;;15.77;6.30;;;6.90;1.00;;;;;;5069049;28;20379;-54
2023/04/10 01:35:10;;;;;;;16.50;7.35;;;6.00;1.00;;;;;;5069432;28;20825;-54
2023/04/10 01:37:41;;;;;;;20.63;7.57;;;6.90;1.00;;;;;;5068786;28;20383;-54
2023/04/10 01:40:10;;;;;;;19.70;8.30;;;5.90;1.00;;;;;;5070144;28;20743;-53
2023/04/10 01:42:43;;;;;;;17.07;7.70;;;5.70;1.00;;;;;;5068719;28;20384;-54
2023/04/10 01:45:15;;;;;;;19.50;7.60;;;5.50;1.00;;;;;;5071142;28;20387;-53
2023/04/10 01:47:41;;;;;;;16.93;6.70;;;5.30;99.90;;;;;;5073393;28;20433;-53
2023/04/10 01:50:08;;;;;;;17.08;7.32;;;5.20;99.90;;;;;;5073637;28;20412;-53
2023/04/10 01:52:35;;;;;;;15.80;7.47;;;5.10;1.00;;;;;;5073055;28;20490;-54
2023/04/10 01:55:01;;;;;;;17.88;7.38;;;5.10;1.00;;;;;;5073614;28;20433;-53
2023/04/10 01:57:30;;;;;;;17.48;7.50;;;5.40;1.00;;;;;;5073617;28;20380;-53
2023/04/10 01:59:56;;;;;;;17.57;8.20;;;5.10;1.00;;;;;;5072875;28;20397;-53
2023/04/10 02:02:22;;;;;;;15.32;7.00;;;5.10;1.00;;;;;;5073499;28;20376;-53
2023/04/10 02:04:50;;;;;;;19.10;7.70;;;5.20;1.00;;;;;;5072519;28;20388;-53
2023/04/10 02:07:36;;;;;;;18.13;7.15;;;5.20;1.00;;;;;;5073168;28;20470;-54
2023/04/10 02:10:10;;;;;;;17.00;7.63;;;5.30;1.00;;;;;;5073313;28;20411;-53
2023/04/10 02:12:40;;;;;;;17.55;7.18;;;6.40;1.00;;;;;;5072634;28;20440;-54
2023/04/10 02:15:07;;;;;;;19.00;7.25;;;5.40;1.00;;;;;;5073788;28;20383;-53
2023/04/10 02:17:35;;;;;;;14.60;6.55;;;5.30;99.90;;;;;;5072616;28;20415;-54
2023/04/10 02:20:03;;;;;;;17.02;7.20;;;5.20;99.90;;;;;;5073399;28;20444;-53
2023/04/10 02:22:29;;;;;;;16.23;6.77;;;5.10;99.90;;;;;;5073182;28;20482;-53
2023/04/10 02:24:56;;;;;;;17.40;6.57;;;5.90;99.90;;;;;;5073145;28;20979;-53
2023/04/10 02:27:29;;;;;;;18.35;7.78;;;5.20;99.90;;;;;;5073540;28;20497;-54
2023/04/10 02:29:55;;;;;;;21.27;9.05;;;5.20;99.90;;;;;;5072231;28;20507;-54
2023/04/10 02:32:22;;;;;;;19.03;7.47;;;5.10;99.90;;;;;;5072827;28;20714;-54
2023/04/10 02:34:48;;;;;;;17.33;7.35;;;6.00;1.00;;;;;;5072288;28;20382;-54
2023/04/10 02:37:15;;;;;;;18.08;8.00;;;5.30;99.90;;;;;;5072851;28;20388;-54
2023/04/10 02:39:41;;;;;;;17.60;8.20;;;5.70;99.90;;;;;;5071831;28;20396;-54
2023/04/10 02:42:06;;;;;;;16.35;7.50;;;5.40;99.90;;;;;;5072690;28;20376;-54
2023/04/10 02:44:32;;;;;;;21.60;8.27;;;6.00;99.90;;;;;;5072114;28;20388;-54
2023/04/10 02:46:58;;;;;;;17.48;7.10;;;5.50;99.90;;;;;;5072620;28;20383;-53
2023/04/10 02:49:23;;;;;;;16.23;6.83;;;6.50;99.90;;;;;;5072404;28;20415;-54
2023/04/10 02:51:50;;;;;;;17.25;7.93;;;5.50;99.90;;;;;;5072009;28;20470;-53
2023/04/10 02:54:16;;;;;;;15.63;7.53;;;5.50;99.90;;;;;;5072762;28;20403;-54
2023/04/10 02:56:41;;;;;;;14.33;6.80;;;5.50;99.90;;;;;;5070675;28;20375;-53
2023/04/10 02:59:09;;;;;;;18.00;8.00;;;5.40;99.90;;;;;;5072180;28;20395;-53
2023/04/10 03:01:35;;;;;;;18.02;7.72;;;5.60;99.90;;;;;;5071594;28;20402;-54
2023/04/10 03:04:02;;;;;;;14.52;6.38;;;5.30;99.90;;;;;;5072493;28;20384;-53
2023/04/10 03:06:28;;;;;;;14.63;6.28;;;6.10;99.90;;;;;;5072289;28;20462;-53
2023/04/10 03:08:55;;;;;;;17.90;7.90;;;5.10;99.90;;;;;;5071609;28;20403;-53
2023/04/10 03:11:21;;;;;;;16.07;6.53;;;6.00;99.90;;;;;;5072190;28;20392;-53
2023/04/10 03:13:47;;;;;;;15.15;6.95;;;5.10;99.90;;;;;;5071840;28;20445;-53
2023/04/10 03:16:19;;;;;;;14.25;6.60;;;5.10;1.00;;;;;;5072012;28;20388;-53
2023/04/10 03:18:45;;;;;;;15.20;6.82;;;6.20;1.00;;;;;;5071548;28;20382;-54
2023/04/10 03:21:11;;;;;;;14.97;6.67;;;6.10;1.00;;;;;;5071670;28;20729;-54
2023/04/10 03:23:36;;;;;;;17.53;7.10;;;5.30;1.00;;;;;;5071378;28;20449;-54
2023/04/10 03:26:03;;;;;;;16.10;7.40;;;5.60;1.00;;;;;;5072114;28;20388;-54
2023/04/10 03:28:29;;;;;;;16.40;6.55;;;5.40;99.90;;;;;;5071496;28;20439;-54
2023/04/10 03:30:55;;;;;;;13.15;6.20;;;5.30;99.90;;;;;;5070973;28;20437;-54
2023/04/10 03:33:21;;;;;;;14.55;6.38;;;6.40;99.90;;;;;;5071864;28;20375;-54
2023/04/10 03:35:47;;;;;;;15.00;6.78;;;6.40;99.90;;;;;;5071072;28;20438;-54
2023/04/10 03:38:13;;;;;;;17.77;7.60;;;7.10;99.90;;;;;;5071927;28;20768;-54
2023/04/10 03:40:38;;;;;;;19.60;9.97;;;6.60;99.90;;;;;;5070841;28;20446;-54
2023/04/10 03:43:04;;;;;;;18.98;8.70;;;5.20;99.90;;;;;;5071655;28;20378;-53
2023/04/10 03:45:30;;;;;;;19.63;8.40;;;5.20;99.90;;;;;;5071488;28;20376;-54
2023/04/10 03:47:55;;;;;;;16.43;7.27;;;5.10;99.90;;;;;;5071228;28;20383;-54
2023/04/10 03:50:21;;;;;;;19.45;7.95;;;5.00;99.90;;;;;;5071490;28;20403;-54
2023/04/10 03:52:48;;;;;;;15.33;6.50;;;6.70;99.90;;;;;;5071070;28;20877;-54
2023/04/10 03:55:17;;;;;;;18.50;7.90;;;5.00;1.00;;;;;;5071257;28;20432;-54
2023/04/10 03:57:44;;;;;;;21.55;9.45;;;5.00;1.00;;;;;;5070491;28;20869;-54
2023/04/10 04:00:16;;;;;;;17.97;8.50;;;5.00;1.00;;;;;;5070929;28;20877;-54
2023/04/10 04:02:42;;;;;;;15.23;6.57;;;4.90;1.00;;;;;;5070216;28;20741;-54
2023/04/10 04:05:08;;;;;;;18.38;7.47;;;6.60;1.00;;;;;;5071282;28;20375;-53
2023/04/10 04:07:34;;;;;;;16.83;7.43;;;4.80;1.00;;;;;;5070361;28;20372;-54
2023/04/10 04:10:00;;;;;;;15.13;7.05;;;4.80;1.00;;;;;;5069560;28;20410;-54
2023/04/10 04:12:26;;;;;;;17.33;6.90;;;4.70;13.40;;;;;;5053460;28;20391;-54
2023/04/10 04:14:52;;;;;;;15.40;7.00;;;4.70;11.00;;;;;;5070113;28;20471;-54
2023/04/10 04:17:19;;;;;;;15.07;7.33;;;6.20;1.00;;;;;;5071072;28;20445;-53
2023/04/10 04:19:44;;;;;;;17.90;7.90;;;4.70;99.90;;;;;;5070218;28;20395;-54
2023/04/10 04:22:10;;;;;;;14.13;6.47;;;5.90;99.90;;;;;;5070761;28;20455;-53
2023/04/10 04:24:36;;;;;;;16.08;7.25;;;4.70;99.90;;;;;;5070459;28;20466;-54
2023/04/10 04:27:02;;;;;;;18.00;7.80;;;4.70;99.90;;;;;;5070745;28;20823;-54
2023/04/10 04:29:28;;;;;;;15.67;7.33;;;6.10;99.90;;;;;;5069970;28;20424;-53
2023/04/10 04:31:53;;;;;;;16.90;7.17;;;6.00;99.90;;;;;;5069873;28;20380;-54
2023/04/10 04:34:19;;;;;;;16.92;7.40;;;6.50;99.90;;;;;;5070619;28;20484;-53
2023/04/10 04:36:44;;;;;;;18.40;8.10;;;5.20;99.90;;;;;;5070027;28;20784;-54
2023/04/10 04:39:10;;;;;;;14.95;6.90;;;5.90;99.90;;;;;;5070334;28;20392;-54
2023/04/10 04:41:36;;;;;;;19.10;8.30;;;4.90;99.90;;;;;;5069908;28;20384;-54
2023/04/10 04:44:01;;;;;;;15.85;7.32;;;4.90;99.90;;;;;;5070053;28;20411;-54
2023/04/10 04:46:27;;;;;;;15.82;6.72;;;5.40;99.90;;;;;;5070186;28;20376;-54
2023/04/10 04:48:54;;;;;;;17.10;7.13;;;4.80;1.00;;;;;;5069784;28;20905;-54
2023/04/10 04:51:19;;;;;;;16.45;7.95;;;4.80;95.40;;;;;;5069703;28;20715;-54
2023/04/10 04:53:45;;;;;;;16.80;7.70;;;4.90;66.40;;;;;;5069378;28;20465;-54
2023/04/10 04:56:11;;;;;;;16.50;7.45;;;6.10;28.00;;;;;;5070108;28;20368;-54
2023/04/10 04:58:37;;;;;;;17.37;7.40;;;6.00;99.00;;;;;;5069527;28;20410;-54
2023/04/10 05:01:02;;;;;;;16.33;6.90;;;4.80;99.90;;;;;;5070242;28;20460;-54
2023/04/10 05:03:28;;;;;;;20.50;7.05;;;4.90;99.90;;;;;;5070167;28;20459;-54
2023/04/10 05:05:54;;;;;;;21.00;7.97;;;5.10;98.70;;;;;;5069584;28;20408;-54
2023/04/10 05:08:20;;;;;;;16.25;7.70;;;5.00;1.00;;;;;;5069776;28;20477;-54
2023/04/10 05:10:46;;;;;;;16.30;6.77;;;5.00;1.00;;;;;;5069777;28;20426;-54
2023/04/10 05:13:12;;;;;;;17.35;7.70;;;5.30;37.50;;;;;;5070344;28;20416;-54
2023/04/10 05:15:38;;;;;;;20.42;8.82;;;5.10;99.90;;;;;;5069244;28;20374;-54
2023/04/10 05:18:05;;;;;;;18.58;7.88;;;5.50;1.00;;;;;;5069688;28;20435;-53
2023/04/10 05:20:33;;;;;;;18.50;7.78;;;5.90;1.00;;;;;;5069500;28;20525;-54
2023/04/10 05:22:58;;;;;;;15.57;7.38;;;6.20;1.00;;;;;;5068613;28;20407;-54
2023/04/10 05:25:24;;;;;;;18.63;8.37;;;6.50;99.90;;;;;;5069933;28;20403;-54
2023/04/10 05:27:49;;;;;;;15.15;7.70;;;6.60;99.90;;;;;;5069369;28;20860;-54
2023/04/10 05:30:17;;;;;;;17.60;7.57;;;6.70;88.60;;;;;;5069113;28;20530;-54
2023/04/10 05:32:42;;;;;;;19.07;7.70;;;6.60;1.00;;;;;;5069337;28;20912;-54
2023/04/10 05:35:08;;;;;;;17.52;7.00;;;8.10;18.00;;;;;;5069717;28;20394;-54
2023/04/10 05:37:34;;;;;;;16.97;7.40;;;7.00;26.80;;;;;;5069753;28;20380;-54
2023/04/10 05:39:59;;;;;;;16.98;7.47;;;7.40;1.00;;;;;;5068751;28;20387;-54
2023/04/10 05:42:25;;;;;;;16.33;7.50;;;7.80;1.00;;;;;;5069125;28;20388;-54
2023/04/10 05:44:51;;;;;;;17.08;7.68;;;8.00;1.00;;;;;;5068579;28;20403;-54
2023/04/10 05:47:17;;;;;;;17.52;7.60;;;8.10;1.00;;;;;;5069655;28;20387;-54
2023/04/10 05:49:42;;;;;;;15.57;7.07;;;8.30;1.00;;;;;;5068651;28;20503;-55
2023/04/10 05:52:08;;;;;;;15.80;7.50;;;8.40;1.00;;;;;;5051513;28;20512;-52
2023/04/10 05:54:34;;;;;;;16.80;7.60;;;8.60;1.00;;;;;;5069623;28;20394;-52
2023/04/10 05:57:00;;;;;;;16.00;6.90;;;8.90;1.00;;;;;;5068831;28;20419;-52
2023/04/10 05:59:26;;;;;;;20.63;8.80;;;9.30;1.00;;;;;;5069429;28;20388;-52
2023/04/10 06:01:52;;;;;;;14.40;6.70;;;9.60;1.00;;;;;;5068950;28;20460;-52
2023/04/10 06:04:17;;;;;;;17.92;7.30;;;9.60;1.00;;;;;;5063978;28;20413;-54
2023/04/10 06:06:43;;;;;;;16.43;7.50;;;9.80;1.00;;;;;;5065892;28;20402;-55
2023/04/10 06:09:08;;;;;;;15.20;7.10;;;10.00;1.00;;;;;;5069137;28;20894;-54
2023/04/10 06:11:34;;;;;;;18.05;7.53;;;10.30;1.00;;;;;;5069557;28;20387;-54
2023/04/10 06:14:00;;;;;;;16.73;7.07;;;10.50;1.00;;;;;;5068684;28;20455;-55
2023/04/10 06:16:26;;;;;;;16.65;7.75;;;10.90;1.00;;;;;;5069376;28;20426;-55
2023/04/10 06:18:53;;;;;;;14.93;7.50;;;11.30;99.90;;;;;;5068706;28;20455;-55
2023/04/10 06:21:18;;;;;;;15.68;8.10;;;11.60;99.90;;;;;;5068637;28;20783;-55
2023/04/10 06:23:44;;;;;;;16.43;7.47;;;11.70;99.90;;;;;;5068734;28;20451;-55
2023/04/10 06:26:09;;;;;;;14.30;7.50;;;11.80;99.90;;;;;;5069227;28;20383;-54
2023/04/10 06:28:36;;;;;;;16.20;7.40;;;11.90;99.90;;;;;;5068672;28;20426;-54
2023/04/10 06:31:04;;;;;;;15.88;7.68;;;12.20;99.90;;;;;;5068493;28;20392;-55
2023/04/10 06:33:30;;;;;;;14.82;7.32;;;12.70;99.90;;;;;;5071695;28;20750;-55
2023/04/10 06:35:57;;;;;;;15.70;7.60;;;13.40;99.90;;;;;;5072171;28;20653;-53
2023/04/10 06:38:24;;;;;;;14.93;7.22;;;13.90;99.90;;;;;;5072652;28;20792;-53
2023/04/10 06:40:49;;;;;;;17.00;8.50;;;14.40;99.90;;;;;;5072149;28;20396;-53
2023/04/10 06:43:15;;;;;;;17.00;7.40;;;14.90;99.90;;;;;;5072518;28;20371;-53
2023/04/10 06:45:40;;;;;;;14.35;7.00;;;14.70;99.90;;;;;;5071848;28;20386;-53
2023/04/10 06:48:06;;;;;;;15.33;7.67;;;14.80;99.90;;;;;;5072361;28;20455;-53
2023/04/10 06:50:32;;;;;;;13.37;7.80;;;15.90;99.90;;;;;;5072285;28;20439;-54
2023/04/10 06:52:58;;;;;;;14.27;7.80;;;16.70;99.90;;;;;;5072290;28;20407;-53
2023/04/10 06:55:25;;;;;;;14.57;8.13;;;17.90;99.90;;;;;;5072307;28;20718;-54
2023/04/10 06:57:51;;;;;;;14.82;10.32;;;18.40;99.90;;;;;;5071785;28;20464;-54
2023/04/10 07:00:17;;;;;;;15.80;10.80;;;19.00;99.90;;;;;;5072237;28;20486;-54
2023/04/10 07:02:43;;;;;;;14.18;10.70;;;19.00;99.90;;;;;;5071299;28;20380;-54
2023/04/10 07:05:09;;;;;;;15.13;11.60;;;19.30;99.90;;;;;;5072242;28;20387;-54
2023/04/10 07:07:34;;;;;;;12.93;11.00;;;20.50;99.90;;;;;;5071944;28;20383;-54
2023/04/10 07:10:00;;;;;;;13.80;10.80;;;21.20;99.90;;;;;;5071210;28;20737;-54
2023/04/10 07:12:26;;;;;;;14.03;10.60;;;21.10;99.90;;;;;;5072030;28;20753;-54
2023/04/10 07:14:51;;;;;;;13.67;10.10;;;20.90;99.90;;;;;;5071576;28;20411;-54
2023/04/10 07:17:17;;;;;;;12.40;10.60;;;20.90;99.90;;;;;;5071990;28;20415;-54
2023/04/10 07:19:42;;;;;;;13.17;10.80;;;21.10;99.90;;;;;;5071268;28;20414;-54
2023/04/10 07:22:08;;;;;;;14.00;11.30;;;21.20;99.90;;;;;;5071815;28;20384;-54
2023/04/10 07:24:33;;;;;;;13.90;11.07;;;21.30;99.90;;;;;;5072303;28;20391;-54
2023/04/10 07:27:00;;;;;;;14.67;9.93;;;21.40;99.90;;;;;;5071134;28;20415;-54
2023/04/10 07:29:26;;;;;;;13.00;10.60;;;20.90;99.90;;;;;;5071078;28;20872;-56
2023/04/10 07:31:51;;;;;;;12.80;10.00;;;21.10;99.90;;;;;;5071389;28;20865;-57
2023/04/10 07:34:17;;;;;;;14.70;9.75;;;20.80;99.90;;;;;;5071798;28;20793;-57
2023/04/10 07:36:43;;;;;;;13.85;10.50;;;20.50;99.90;;;;;;5070516;28;20387;-58
2023/04/10 07:39:09;;;;;;;12.87;9.70;;;20.70;99.90;;;;;;5071359;28;20387;-57
2023/04/10 07:41:35;;;;;;;13.55;9.70;;;21.20;99.90;;;;;;5071588;28;20386;-58
2023/04/10 07:44:00;;;;;;;13.05;9.60;;;20.90;99.90;;;;;;5070593;28;20459;-57
2023/04/10 07:46:26;;;;;;;12.45;9.23;;;20.10;99.90;;;;;;5071332;28;20375;-58
2023/04/10 07:48:53;;;;;;;12.40;10.10;;;20.10;99.90;;;;;;5070748;28;20392;-57
2023/04/10 07:51:19;;;;;;;13.40;9.85;;;20.50;99.90;;;;;;5071171;28;20475;-58
2023/04/10 07:53:45;;;;;;;12.30;8.93;;;20.90;99.90;;;;;;5070476;28;20948;-57
2023/04/10 07:56:16;;;;;;;12.90;9.07;;;21.10;99.90;;;;;;5071027;28;20463;-58
2023/04/10 07:58:41;;;;;;;12.70;9.40;;;20.70;99.90;;;;;;5070231;28;20424;-58
2023/04/10 08:01:07;;;;;;;13.75;9.48;;;21.20;99.90;;;;;;5071250;28;20472;-58
2023/04/10 08:03:44;;;;;;;12.57;9.87;;;21.40;99.90;;;;;;5070980;28;20376;-57
2023/04/10 08:06:10;;;;;;;12.90;9.80;;;21.20;99.90;;;;;;5071003;28;20383;-58
2023/04/10 08:08:40;;;;;;;12.05;9.55;;;21.60;99.90;;;;;;5070847;28;20384;-55
2023/04/10 08:11:27;;;;;;;11.90;10.13;;;22.00;99.90;;;;;;5071442;28;20881;-55
2023/04/10 08:13:55;;;;;;;11.73;9.75;;;22.40;99.90;;;;;;5070626;28;20387;-55
2023/04/10 08:16:29;;;;;;;11.57;9.27;;;21.80;99.90;;;;;;5071001;28;20391;-55
2023/04/10 08:18:56;;;;;;;11.60;9.70;;;22.00;99.90;;;;;;5069805;28;20887;-55
2023/04/10 08:21:26;;;;;;;12.27;9.50;;;22.40;99.90;;;;;;5070864;28;20471;-55
2023/04/10 08:23:53;;;;;;;10.45;8.85;;;23.10;99.90;;;;;;5069803;28;20781;-55
2023/04/10 08:26:20;;;;;;;12.25;8.80;;;22.40;99.90;;;;;;5070530;28;20392;-55
2023/04/10 08:28:50;;;;;;;12.30;8.77;;;22.10;99.90;;;;;;5069545;28;20408;-55
2023/04/10 08:31:20;;;;;;;11.80;8.68;;;21.70;99.90;;;;;;5070518;28;20392;-55
2023/04/10 08:33:48;;;;;;;12.27;8.43;;;22.30;99.90;;;;;;5069907;28;20368;-55
2023/04/10 08:36:14;;;;;;;11.95;8.80;;;22.90;99.90;;;;;;5070635;28;20439;-55
2023/04/10 08:38:41;;;;;;;12.57;9.43;;;23.00;99.90;;;;;;5069594;28;20368;-56
2023/04/10 08:41:10;;;;;;;12.13;9.45;;;23.30;99.90;;;;;;5070073;28;20741;-56
2023/04/10 08:43:36;;;;;;;11.98;9.10;;;23.10;99.90;;;;;;5069879;28;20380;-55
2023/04/10 08:46:01;;;;;;;10.80;9.00;;;23.30;99.90;;;;;;5069641;28;20918;-55
2023/04/10 08:48:36;;;;;;;10.93;8.90;;;22.60;99.90;;;;;;5070158;28;20391;-55
2023/04/10 08:51:04;;;;;;;11.05;8.70;;;22.60;99.90;;;;;;5069367;28;20407;-55
2023/04/10 08:53:32;;;;;;;12.00;8.80;;;22.90;99.90;;;;;;5069745;28;20863;-58
2023/04/10 08:56:01;;;;;;;13.07;9.40;;;24.00;99.90;;;;;;5068971;28;20376;-58
2023/04/10 08:58:27;;;;;;;10.73;9.10;;;24.80;99.90;;;;;;5070238;28;20411;-56
2023/04/10 09:00:53;;;;;;;10.88;9.18;;;24.30;99.90;;;;;;5069956;28;20414;-56
2023/04/10 09:03:19;;;;;;;11.20;9.20;;;23.90;99.90;;;;;;5070199;28;20432;-55
2023/04/10 09:05:44;;;;;;;11.25;8.40;;;24.00;99.90;;;;;;5069334;28;20387;-56
2023/04/10 09:08:11;;;;;;;9.95;7.70;;;23.20;99.90;;;;;;5069779;28;20924;-56
2023/04/10 09:10:36;;;;;;;10.80;8.90;;;23.90;99.90;;;;;;5069777;28;20411;-56
2023/04/10 09:13:02;;;;;;;10.75;8.52;;;24.60;99.90;;;;;;5069016;28;20394;-59
2023/04/10 09:15:27;;;;;;;10.40;8.55;;;25.00;99.90;;;;;;5069836;28;20372;-58
2023/04/10 09:18:01;;;;;;;9.10;7.68;;;25.20;99.90;;;;;;5069045;28;20457;-56
2023/04/10 09:20:31;;;;;;;9.48;7.50;;;23.90;99.90;;;;;;5069876;28;20517;-56
2023/04/10 09:22:57;;;;;;;9.48;7.25;;;23.50;99.90;;;;;;5068748;28;20386;-55
2023/04/10 09:25:30;;;;;;;9.25;7.60;;;23.30;99.90;;;;;;5069445;28;20376;-55
2023/04/10 09:28:06;;;;;;;9.70;7.93;;;24.10;99.90;;;;;;5068569;28;20537;-56
2023/04/10 09:30:40;;;;;;;9.00;7.00;;;23.90;99.90;;;;;;5069887;28;20407;-56
2023/04/10 09:33:23;;;;;;;9.30;7.05;;;23.70;99.90;;;;;;5069134;28;20388;-56
2023/04/10 09:35:50;;;;;;;8.57;6.60;;;23.60;99.90;;;;;;5068975;28;20522;-56
2023/04/10 09:38:17;;;;;;;9.00;6.30;;;23.70;99.90;;;;;;5069452;28;20388;-55
2023/04/10 09:40:43;;;;;;;8.70;6.90;;;23.80;99.90;;;;;;5068902;28;20971;-56
2023/04/10 09:43:23;;;;;;;9.10;6.80;;;24.10;99.90;;;;;;5069216;28;20376;-56
2023/04/10 09:45:51;;;;;;;10.75;7.90;;;24.50;99.90;;;;;;5068765;28;20415;-56
2023/04/10 09:48:17;;;;;;;9.13;7.18;;;24.40;99.90;;;;;;5069076;28;20873;-56
2023/04/10 09:50:43;;;;;;;8.80;7.30;;;24.70;99.90;;;;;;5068682;28;20407;-58
2023/04/10 09:53:19;;;;;;;8.90;6.90;;;24.40;99.90;;;;;;5069383;28;20383;-57
2023/04/10 09:55:47;;;;;;;9.50;7.68;;;24.70;99.90;;;;;;5068329;28;20410;-58
2023/04/10 09:58:14;;;;;;;8.77;7.10;;;24.40;99.90;;;;;;5069237;28;20402;-57
2023/04/10 10:00:42;;;;;;;8.50;7.03;;;24.50;99.90;;;;;;5069035;28;20383;-58
2023/04/10 10:03:09;;;;;;;9.80;6.90;;;24.40;99.90;;;;;;5068816;28;20397;-58
2023/04/10 10:05:41;;;;;;;8.70;6.90;;;24.60;99.90;;;;;;5069300;28;20693;-58
2023/04/10 10:08:10;;;;;;;8.70;7.22;;;24.90;99.90;;;;;;5073263;28;20422;-58
2023/04/10 10:10:46;;;;;;;8.98;7.00;;;24.50;99.90;;;;;;5072990;28;20747;-55
2023/04/10 10:13:18;;;;;;;9.07;7.30;;;24.30;99.90;;;;;;5072853;28;20387;-56
2023/04/10 10:15:50;;;;;;;8.65;6.80;;;24.30;99.90;;;;;;5072834;28;20387;-56
2023/04/10 10:18:42;;;;;;;8.80;7.00;;;24.20;99.90;;;;;;5073041;28;20861;-56
2023/04/10 10:21:09;;;;;;;8.40;7.00;;;23.80;99.90;;;;;;5073274;28;20391;-56
2023/04/10 10:23:36;;;;;;;10.50;6.78;;;24.40;99.90;;;;;;5073040;28;20399;-57
2023/04/10 10:26:05;;;;;;;11.07;6.80;;;23.90;99.90;;;;;;5071721;28;21185;-58
2023/04/10 10:28:33;;;;;;;7.82;6.60;;;24.20;99.90;;;;;;5072703;28;20449;-58
2023/04/10 10:30:59;;;;;;;7.80;6.32;;;24.50;99.90;;;;;;5072096;28;20864;-58
2023/04/10 10:33:28;;;;;;;9.30;7.10;;;24.80;99.90;;;;;;5072734;28;20379;-58
2023/04/10 10:35:56;;;;;;;8.80;6.95;;;24.80;99.90;;;;;;5072541;28;20856;-58
2023/04/10 10:38:22;;;;;;;8.90;6.32;;;25.20;99.90;;;;;;5072564;28;20383;-58
2023/04/10 10:41:01;;;;;;;7.80;6.50;;;25.00;99.90;;;;;;5071521;28;20867;-56
2023/04/10 10:43:54;;;;;;;8.00;6.25;;;23.40;99.90;;;;;;5072219;28;20752;-55
2023/04/10 10:46:48;;;;;;;8.35;6.43;;;22.70;99.90;;;;;;5072927;28;20368;-55
2023/04/10 10:49:13;;;;;;;8.63;6.30;;;22.00;99.90;;;;;;5072424;28;20872;-55
2023/04/10 10:51:49;;;;;;;9.27;6.70;;;21.10;99.90;;;;;;5072292;28;20388;-55
2023/04/10 10:54:34;;;;;;;9.10;6.30;;;20.50;99.90;;;;;;5072299;28;20463;-57
2023/04/10 10:57:01;;;;;;;7.90;6.40;;;20.40;99.90;;;;;;5071491;28;20396;-57
2023/04/10 10:59:42;;;;;;;8.32;6.22;;;20.10;99.90;;;;;;5072308;28;20391;-57
2023/04/10 11:02:18;;;;;;;7.75;6.10;;;20.10;99.90;;;;;;5072197;28;20395;-57
2023/04/10 11:04:47;;;;;;;8.13;5.88;;;20.70;99.90;;;;;;5071851;28;20419;-55
2023/04/10 11:07:15;;;;;;;8.15;5.90;;;20.80;99.90;;;;;;5072007;28;20463;-55
2023/04/10 11:09:56;;;;;;;7.40;5.78;;;20.80;99.90;;;;;;5053520;28;20457;-55
2023/04/10 11:12:23;;;;;;;8.00;6.10;;;21.60;99.90;;;;;;5071870;28;20849;-55
2023/04/10 11:15:03;;;;;;;7.50;5.70;;;22.10;99.90;;;;;;5071583;28;20445;-55
2023/04/10 11:17:51;;;;;;;8.20;6.10;;;22.40;99.90;;;;;;5071737;28;20384;-55
2023/04/10 11:20:20;;;;;;;8.50;6.20;;;22.30;99.90;;;;;;5071884;28;20420;-55
2023/04/10 11:23:11;;;;;;;8.55;6.13;;;22.10;99.90;;;;;;5071226;28;20845;-55
2023/04/10 11:25:49;;;;;;;7.80;5.60;;;22.10;99.90;;;;;;5071720;28;20506;-55
2023/04/10 11:28:34;;;;;;;7.70;5.40;;;21.80;99.90;;;;;;5071809;28;20412;-55
2023/04/10 11:31:20;;;;;;;8.30;5.32;;;21.70;99.90;;;;;;5071106;28;20403;-55
2023/04/10 11:33:47;;;;;;;8.50;5.50;;;21.20;99.90;;;;;;5070709;28;20463;-55
2023/04/10 11:36:16;;;;;;;7.60;5.80;;;21.10;99.90;;;;;;5053856;28;20737;-55
2023/04/10 11:38:53;;;;;;;7.55;5.35;;;21.00;99.90;;;;;;5053178;28;20395;-55
2023/04/10 11:41:19;;;;;;;7.00;5.17;;;20.90;99.90;;;;;;5071785;28;20396;-55
2023/04/10 11:43:45;;;;;;;6.60;5.18;;;20.80;99.90;;;;;;5070920;28;20769;-55
2023/04/10 11:46:10;;;;;;;6.80;4.85;;;20.60;99.90;;;;;;5071749;28;20451;-57
2023/04/10 11:48:36;;;;;;;6.90;5.00;;;20.90;99.90;;;;;;5071583;28;20425;-55
2023/04/10 11:51:10;;;;;;;6.78;5.07;;;21.00;99.90;;;;;;5070636;28;20406;-57
2023/04/10 11:53:36;;;;;;;6.78;5.20;;;20.90;99.90;;;;;;5071451;28;20414;-55
2023/04/10 11:56:02;;;;;;;6.60;5.13;;;21.30;99.90;;;;;;5052618;28;20918;-55
2023/04/10 11:58:29;;;;;;;6.38;4.80;;;21.20;99.90;;;;;;5070957;28;20391;-55
2023/04/10 12:01:04;;;;;;;6.40;4.45;;;21.10;99.90;;;;;;5070428;28;20392;-55
2023/04/10 12:03:42;;;;;;;6.85;4.88;;;21.10;99.90;;;;;;5070910;28;20387;-55
2023/04/10 12:06:13;;;;;;;5.90;4.30;;;21.10;99.90;;;;;;5070595;28;20364;-56
2023/04/10 12:08:41;;;;;;;6.45;4.55;;;21.20;99.90;;;;;;5071449;28;20455;-55
2023/04/10 12:11:08;;;;;;;5.97;4.30;;;21.10;99.90;;;;;;5070214;28;20435;-55
2023/04/10 12:13:35;;;;;;;6.15;4.30;;;21.00;99.90;;;;;;5070633;28;20706;-57
2023/04/10 12:16:06;;;;;;;6.00;4.50;;;20.70;99.90;;;;;;5070239;28;20463;-57
2023/04/10 12:18:32;;;;;;;7.00;4.80;;;20.80;99.90;;;;;;5053183;28;20384;-57
2023/04/10 12:20:58;;;;;;;7.15;4.90;;;20.90;99.90;;;;;;5070009;28;20670;-57
2023/04/10 12:23:27;;;;;;;5.80;4.40;;;20.60;99.90;;;;;;5070997;28;20372;-57
2023/04/10 12:26:08;;;;;;;6.25;4.70;;;20.80;99.90;;;;;;5069721;28;20508;-57
2023/04/10 12:28:36;;;;;;;6.63;4.65;;;20.70;99.90;;;;;;5070398;28;20439;-57
2023/04/10 12:31:02;;;;;;;6.90;4.80;;;20.60;99.90;;;;;;5068852;28;20407;-57
2023/04/10 12:33:28;;;;;;;6.28;4.82;;;20.50;99.90;;;;;;5070776;28;20387;-57
2023/04/10 12:35:54;;;;;;;6.10;4.50;;;20.30;99.90;;;;;;5069687;28;20466;-57
2023/04/10 12:38:43;;;;;;;6.60;4.40;;;20.20;99.90;;;;;;5070605;28;20857;-56
2023/04/10 12:41:11;;;;;;;6.50;4.90;;;20.30;99.90;;;;;;5069802;28;20383;-57
2023/04/10 12:43:41;;;;;;;6.15;4.57;;;20.60;99.90;;;;;;5070188;28;20885;-55
2023/04/10 12:46:20;;;;;;;6.37;4.63;;;21.00;99.90;;;;;;5069889;28;20399;-55
2023/04/10 12:48:46;;;;;;;6.20;4.40;;;20.90;99.90;;;;;;5070123;28;20376;-55
2023/04/10 12:51:12;;;;;;;5.93;4.28;;;20.80;99.90;;;;;;5070173;28;20472;-57
2023/04/10 12:53:46;;;;;;;6.60;5.00;;;20.50;99.90;;;;;;5070087;28;20399;-56